Time;durP1;ratioP1;P1;durP2;ratioP2;P2;SDS_P1;SDS_P2;PMS_P1;PMS_P2;Temp;Humidity;BMP_temperature;BMP_pressure;BME280_temperature;BME280_humidity;BME280_pressure;Samples;Min_cycle;Max_cycle;Signal;HPM_P1;HPM_P2
2021/07/10 00:00:02;;;;;;;;;;;;;;;;;;5115733;28;19911;-66
2021/07/10 00:02:28;;;;;;;;;;;;;;;;;;5113624;28;20345;-67
2021/07/10 00:04:54;;;;;;;;;;;;;;;;;;5113528;28;19948;-67
2021/07/10 00:07:20;;;;;;;;;;;;;;;;;;5112822;28;20260;-65
2021/07/10 00:09:46;;;;;;;;;;;;;;;;;;5108566;28;19912;-67
2021/07/10 00:12:12;;;;;;;;;;;;;;;;;;5116806;28;19955;-68
2021/07/10 00:14:37;;;;;;;;;;;;;;;;;;5113238;28;19922;-67
2021/07/10 00:17:03;;;;;;;;;;;;;;;;;;5113029;28;19935;-67
2021/07/10 00:19:29;;;;;;;;;;;;;;;;;;5115611;27;19919;-67
2021/07/10 00:21:55;;;;;;;;;;;;;;;;;;5113859;27;19978;-67
2021/07/10 00:24:21;;;;;;;;;;;;;;;;;;5118100;27;20286;-65
2021/07/10 00:26:47;;;;;;;;;;;;;;;;;;5117459;27;19911;-67
2021/07/10 00:29:13;;;;;;;;;;;;;;;;;;5116879;27;20002;-67
2021/07/10 00:31:39;;;;;;;;;;;;;;;;;;5116949;27;20066;-67
2021/07/10 00:34:05;;;;;;;;;;;;;;;;;;5114757;27;19923;-67
2021/07/10 00:36:31;;;;;;;;;;;;;;;;;;5116780;27;19953;-67
2021/07/10 00:38:56;;;;;;;;;;;;;;;;;;5117585;27;19908;-67
2021/07/10 00:41:22;;;;;;;;;;;;;;;;;;5116644;27;20388;-67
2021/07/10 00:43:48;;;;;;;;;;;;;;;;;;5116440;27;19919;-67
2021/07/10 00:46:15;;;;;;;;;;;;;;;;;;5115701;27;20393;-67
2021/07/10 00:48:41;;;;;;;;;;;;;;;;;;5113654;27;19919;-67
2021/07/10 00:51:07;;;;;;;;;;;;;;;;;;5119428;27;19915;-67
2021/07/10 00:53:33;;;;;;;;;;;;;;;;;;5115762;27;19912;-67
2021/07/10 00:55:59;;;;;;;;;;;;;;;;;;5116061;27;19995;-67
2021/07/10 00:58:25;;;;;;;;;;;;;;;;;;5116728;27;19915;-67
2021/07/10 01:00:51;;;;;;;;;;;;;;;;;;5112722;27;19912;-67
2021/07/10 01:03:16;;;;;;;;;;;;;;;;;;5119094;27;19908;-67
2021/07/10 01:05:42;;;;;;;;;;;;;;;;;;5118139;27;20431;-67
2021/07/10 01:08:08;;;;;;;;;;;;;;;;;;5115684;27;19965;-67
2021/07/10 01:10:34;;;;;;;;;;;;;;;;;;5115613;27;19987;-67
2021/07/10 01:13:00;;;;;;;;;;;;;;;;;;5113379;27;20287;-67
2021/07/10 01:15:26;;;;;;;;;;;;;;;;;;5116651;27;20313;-67
2021/07/10 01:17:53;;;;;;;;;;;;;;;;;;5116875;27;19915;-67
2021/07/10 01:20:19;;;;;;;;;;;;;;;;;;5115590;27;19916;-67
2021/07/10 01:22:45;;;;;;;;;;;;;;;;;;5115726;27;20016;-67
2021/07/10 01:25:11;;;;;;;;;;;;;;;;;;5114996;27;19919;-67
2021/07/10 01:27:37;;;;;;;;;;;;;;;;;;5113740;27;19927;-67
2021/07/10 01:30:03;;;;;;;;;;;;;;;;;;5117232;27;19915;-67
2021/07/10 01:32:29;;;;;;;;;;;;;;;;;;5115685;27;19915;-67
2021/07/10 01:34:55;;;;;;;;;;;;;;;;;;5115377;27;19922;-67
2021/07/10 01:37:21;;;;;;;;;;;;;;;;;;5115918;27;20290;-67
2021/07/10 01:39:46;;;;;;;;;;;;;;;;;;5111312;28;20294;-67
2021/07/10 01:42:12;;;;;;;;;;;;;;;;;;5118630;27;19933;-67
2021/07/10 01:44:38;;;;;;;;;;;;;;;;;;5115468;27;19912;-67
2021/07/10 01:47:04;;;;;;;;;;;;;;;;;;5115486;27;19911;-70
2021/07/10 01:49:30;;;;;;;;;;;;;;;;;;5115422;27;20362;-67
2021/07/10 01:51:56;;;;;;;;;;;;;;;;;;5111492;27;19967;-67
2021/07/10 01:54:22;;;;;;;;;;;;;;;;;;5116829;27;20351;-67
2021/07/10 01:56:48;;;;;;;;;;;;;;;;;;5115892;27;19912;-67
2021/07/10 01:59:13;;;;;;;;;;;;;;;;;;5115326;27;19973;-67
2021/07/10 02:01:39;;;;;;;;;;;;;;;;;;5115117;27;19920;-67
2021/07/10 02:04:08;;;;;;;;;;;;;;;;;;5112680;27;20371;-67
2021/07/10 02:06:34;;;;;;;;;;;;;;;;;;5113965;27;19915;-67
2021/07/10 02:08:59;;;;;;;;;;;;;;;;;;5116879;27;19908;-67
2021/07/10 02:11:25;;;;;;;;;;;;;;;;;;5114048;27;19923;-67
2021/07/10 02:13:51;;;;;;;;;;;;;;;;;;5096321;28;20386;-67
2021/07/10 02:16:17;;;;;;;;;;;;;;;;;;5096685;27;19968;-67
2021/07/10 02:18:43;;;;;;;;;;;;;;;;;;5111096;28;19955;-67
2021/07/10 02:21:09;;;;;;;;;;;;;;;;;;5117279;27;19907;-67
2021/07/10 02:23:35;;;;;;;;;;;;;;;;;;5114452;27;19968;-67
2021/07/10 02:26:01;;;;;;;;;;;;;;;;;;5114743;27;19911;-68
2021/07/10 02:28:27;;;;;;;;;;;;;;;;;;5114763;27;20430;-67
2021/07/10 02:30:53;;;;;;;;;;;;;;;;;;5110718;27;19923;-67
2021/07/10 02:33:19;;;;;;;;;;;;;;;;;;5116498;27;19915;-66
2021/07/10 02:35:44;;;;;;;;;;;;;;;;;;5114534;27;20447;-67
2021/07/10 02:38:10;;;;;;;;;;;;;;;;;;5114600;27;20423;-67
2021/07/10 02:40:36;;;;;;;;;;;;;;;;;;5114247;27;19912;-67
2021/07/10 02:43:02;;;;;;;;;;;;;;;;;;5111333;27;20313;-67
2021/07/10 02:45:28;;;;;;;;;;;;;;;;;;5114431;27;20367;-67
2021/07/10 02:47:54;;;;;;;;;;;;;;;;;;5115192;27;19980;-67
2021/07/10 02:50:20;;;;;;;;;;;;;;;;;;5113997;27;19953;-67
2021/07/10 02:52:46;;;;;;;;;;;;;;;;;;5095880;28;19912;-67
2021/07/10 02:55:12;;;;;;;;;;;;;;;;;;5113311;27;19914;-67
2021/07/10 02:57:37;;;;;;;;;;;;;;;;;;5111670;27;19942;-67
2021/07/10 03:00:03;;;;;;;;;;;;;;;;;;5116584;27;19908;-67
2021/07/10 03:02:29;;;;;;;;;;;;;;;;;;5114027;27;19991;-67
2021/07/10 03:04:55;;;;;;;;;;;;;;;;;;5113488;27;19922;-67
2021/07/10 03:07:21;;;;;;;;;;;;;;;;;;5114180;27;19914;-67
2021/07/10 03:09:47;;;;;;;;;;;;;;;;;;5109115;28;19999;-67
2021/07/10 03:12:13;;;;;;;;;;;;;;;;;;5095943;28;19955;-67
2021/07/10 03:14:40;;;;;;;;;;;;;;;;;;5113480;27;20387;-67
2021/07/10 03:17:06;;;;;;;;;;;;;;;;;;5113868;27;20426;-67
2021/07/10 03:19:32;;;;;;;;;;;;;;;;;;5113304;28;19964;-67
2021/07/10 03:21:58;;;;;;;;;;;;;;;;;;5111058;28;19913;-66
2021/07/10 03:24:24;;;;;;;;;;;;;;;;;;5114446;28;19915;-67
2021/07/10 03:26:50;;;;;;;;;;;;;;;;;;5114979;28;20278;-67
2021/07/10 03:29:16;;;;;;;;;;;;;;;;;;5113782;28;19961;-67
2021/07/10 03:31:42;;;;;;;;;;;;;;;;;;5113342;28;20450;-66
2021/07/10 03:34:08;;;;;;;;;;;;;;;;;;5112306;28;19920;-66
2021/07/10 03:36:33;;;;;;;;;;;;;;;;;;5112729;28;19908;-67
2021/07/10 03:38:59;;;;;;;;;;;;;;;;;;5098709;28;20021;-59
2021/07/10 03:41:25;;;;;;;;;;;;;;;;;;5113704;28;20395;-60
2021/07/10 03:43:52;;;;;;;;;;;;;;;;;;5113796;28;19911;-60
2021/07/10 03:46:18;;;;;;;;;;;;;;;;;;5112909;28;19911;-60
2021/07/10 03:48:44;;;;;;;;;;;;;;;;;;5109430;28;20019;-60
2021/07/10 03:51:10;;;;;;;;;;;;;;;;;;5116769;28;19916;-60
2021/07/10 03:53:36;;;;;;;;;;;;;;;;;;5116170;27;19922;-60
2021/07/10 03:56:02;;;;;;;;;;;;;;;;;;5117334;27;20256;-60
2021/07/10 03:58:27;;;;;;;;;;;;;;;;;;5117545;27;19937;-60
2021/07/10 04:00:53;;;;;;;;;;;;;;;;;;5113606;27;19916;-59
2021/07/10 04:03:19;;;;;;;;;;;;;;;;;;5119588;27;19908;-59
2021/07/10 04:05:45;;;;;;;;;;;;;;;;;;5117637;27;19939;-60
2021/07/10 04:08:11;;;;;;;;;;;;;;;;;;5116910;27;19912;-59
2021/07/10 04:10:37;;;;;;;;;;;;;;;;;;5098749;28;19919;-59
2021/07/10 04:13:03;;;;;;;;;;;;;;;;;;5116524;27;20366;-60
2021/07/10 04:15:28;;;;;;;;;;;;;;;;;;5117238;27;19949;-60
2021/07/10 04:17:54;;;;;;;;;;;;;;;;;;5117650;27;19999;-60
2021/07/10 04:20:20;;;;;;;;;;;;;;;;;;5117078;27;19919;-60
2021/07/10 04:22:46;;;;;;;;;;;;;;;;;;5117114;27;20382;-60
2021/07/10 04:25:12;;;;;;;;;;;;;;;;;;5115874;27;19912;-59
2021/07/10 04:27:38;;;;;;;;;;;;;;;;;;5114576;27;19920;-60
2021/07/10 04:30:04;;;;;;;;;;;;;;;;;;5119183;27;19915;-60
2021/07/10 04:32:30;;;;;;;;;;;;;;;;;;5116847;27;19941;-60
2021/07/10 04:34:56;;;;;;;;;;;;;;;;;;5116464;27;19962;-60
2021/07/10 04:37:21;;;;;;;;;;;;;;;;;;5116861;27;19912;-60
2021/07/10 04:39:47;;;;;;;;;;;;;;;;;;5112142;28;19977;-60
2021/07/10 04:42:13;;;;;;;;;;;;;;;;;;5120295;27;20416;-60
2021/07/10 04:44:39;;;;;;;;;;;;;;;;;;5116125;27;19962;-60
2021/07/10 04:47:05;;;;;;;;;;;;;;;;;;5116741;27;19912;-60
2021/07/10 04:49:31;;;;;;;;;;;;;;;;;;5116378;27;19918;-60
2021/07/10 04:51:57;;;;;;;;;;;;;;;;;;5113594;27;19920;-59
2021/07/10 04:54:23;;;;;;;;;;;;;;;;;;5117367;27;19950;-60
2021/07/10 04:56:48;;;;;;;;;;;;;;;;;;5100472;28;19908;-60
2021/07/10 04:59:14;;;;;;;;;;;;;;;;;;5115716;27;19912;-60
2021/07/10 05:01:40;;;;;;;;;;;;;;;;;;5115444;27;19927;-60
2021/07/10 05:04:06;;;;;;;;;;;;;;;;;;5110370;28;19947;-60
2021/07/10 05:06:32;;;;;;;;;;;;;;;;;;5095245;28;20359;-60
2021/07/10 05:08:58;;;;;;;;;;;;;;;;;;5104796;28;19914;-60
2021/07/10 05:11:24;;;;;;;;;;;;;;;;;;5102148;28;19924;-60
2021/07/10 05:13:50;;;;;;;;;;;;;;;;;;5100231;28;19916;-60
2021/07/10 05:16:15;;;;;;;;;;;;;;;;;;5099722;28;20022;-61
2021/07/10 05:18:41;;;;;;;;;;;;;;;;;;5095699;28;19912;-60
2021/07/10 05:21:07;;;;;;;;;;;;;;;;;;5099102;28;20355;-60
2021/07/10 05:23:33;;;;;;;;;;;;;;;;;;5100142;28;19919;-60
2021/07/10 05:25:59;;;;;;;;;;;;;;;;;;5100109;28;19965;-60
2021/07/10 05:28:25;;;;;;;;;;;;;;;;;;5099358;28;19916;-60
2021/07/10 05:30:51;;;;;;;;;;;;;;;;;;5095786;28;20007;-60
2021/07/10 05:33:17;;;;;;;;;;;;;;;;;;5098163;28;19961;-61
2021/07/10 05:35:44;;;;;;;;;;;;;;;;;;5100082;28;19912;-61
2021/07/10 05:38:10;;;;;;;;;;;;;;;;;;5104711;28;19912;-60
2021/07/10 05:40:36;;;;;;;;;;;;;;;;;;5099753;28;19935;-60
2021/07/10 05:43:02;;;;;;;;;;;;;;;;;;5097191;28;19912;-60
2021/07/10 05:45:28;;;;;;;;;;;;;;;;;;5096910;28;19908;-60
2021/07/10 05:47:54;;;;;;;;;;;;;;;;;;5124625;27;19911;-60
2021/07/10 05:50:20;;;;;;;;;;;;;;;;;;5118175;27;20290;-61
2021/07/10 05:52:46;;;;;;;;;;;;;;;;;;5115281;27;19923;-61
2021/07/10 05:55:11;;;;;;;;;;;;;;;;;;5095914;27;19911;-61
2021/07/10 05:57:37;;;;;;;;;;;;;;;;;;5112653;27;20011;-61
2021/07/10 06:00:03;;;;;;;;;;;;;;;;;;5117468;27;19931;-61
2021/07/10 06:02:29;;;;;;;;;;;;;;;;;;5096512;28;19959;-59
2021/07/10 06:04:55;;;;;;;;;;;;;;;;;;5115075;27;19912;-59
2021/07/10 06:07:21;;;;;;;;;;;;;;;;;;5114440;27;20316;-59
2021/07/10 06:09:47;;;;;;;;;;;;;;;;;;5110042;28;19912;-59
2021/07/10 06:12:13;;;;;;;;;;;;;;;;;;5124520;27;19915;-59
2021/07/10 06:14:38;;;;;;;;;;;;;;;;;;5114110;27;20358;-59
2021/07/10 06:17:04;;;;;;;;;;;;;;;;;;5111345;27;19932;-60
2021/07/10 06:19:30;;;;;;;;;;;;;;;;;;5112404;27;20358;-58
2021/07/10 06:21:56;;;;;;;;;;;;;;;;;;5101626;27;19951;-60
2021/07/10 06:24:23;;;;;;;;;;;;;;;;;;5096135;28;19953;-59
2021/07/10 06:26:49;;;;;;;;;;;;;;;;;;5113568;27;19908;-59
2021/07/10 06:29:14;;;;;;;;;;;;;;;;;;5113370;27;20370;-59
2021/07/10 06:31:40;;;;;;;;;;;;;;;;;;5111091;27;19935;-62
2021/07/10 06:34:06;;;;;;;;;;;;;;;;;;5111320;27;20609;-61
2021/07/10 06:36:33;;;;;;;;;;;;;;;;;;5112440;27;19915;-61
2021/07/10 06:38:58;;;;;;;;;;;;;;;;;;5113455;27;19957;-61
2021/07/10 06:41:24;;;;;;;;;;;;;;;;;;5113354;27;19989;-60
2021/07/10 06:43:50;;;;;;;;;;;;;;;;;;5114163;27;19912;-59
2021/07/10 06:46:16;;;;;;;;;;;;;;;;;;5094433;27;19937;-60
2021/07/10 06:48:42;;;;;;;;;;;;;;;;;;5111461;27;19916;-61
2021/07/10 06:51:08;;;;;;;;;;;;;;;;;;5116806;27;20363;-60
2021/07/10 06:53:34;;;;;;;;;;;;;;;;;;5114341;27;19912;-59
2021/07/10 06:56:00;;;;;;;;;;;;;;;;;;5112708;27;19959;-59
2021/07/10 06:58:26;;;;;;;;;;;;;;;;;;5113432;27;19912;-63
2021/07/10 07:00:51;;;;;;;;;;;;;;;;;;5109995;27;19919;-60
2021/07/10 07:03:17;;;;;;;;;;;;;;;;;;5116283;27;19931;-60
2021/07/10 07:05:43;;;;;;;;;;;;;;;;;;5115094;27;19950;-59
2021/07/10 07:08:09;;;;;;;;;;;;;;;;;;5094534;28;20247;-61
2021/07/10 07:10:35;;;;;;;;;;;;;;;;;;5095175;27;19931;-59
2021/07/10 07:13:01;;;;;;;;;;;;;;;;;;5111457;27;19959;-59
2021/07/10 07:15:27;;;;;;;;;;;;;;;;;;5114316;27;20025;-59
2021/07/10 07:17:53;;;;;;;;;;;;;;;;;;5114467;27;19968;-59
2021/07/10 07:20:19;;;;;;;;;;;;;;;;;;5113257;28;19964;-59
2021/07/10 07:22:47;;;;;;;;;;;;;;;;;;5113271;28;19976;-59
2021/07/10 07:25:13;;;;;;;;;;;;;;;;;;5112637;28;19912;-59
2021/07/10 07:27:38;;;;;;;;;;;;;;;;;;5111854;28;19927;-59
2021/07/10 07:30:04;;;;;;;;;;;;;;;;;;5119947;27;20367;-60
2021/07/10 07:32:30;;;;;;;;;;;;;;;;;;5117113;27;20014;-60
2021/07/10 07:34:56;;;;;;;;;;;;;;;;;;5117495;27;19915;-60
2021/07/10 07:37:22;;;;;;;;;;;;;;;;;;5116770;27;19915;-59
2021/07/10 07:39:48;;;;;;;;;;;;;;;;;;5112679;28;20370;-63
2021/07/10 07:42:14;;;;;;;;;;;;;;;;;;5120321;27;20039;-60
2021/07/10 07:44:41;;;;;;;;;;;;;;;;;;5117581;27;19951;-60
2021/07/10 07:47:07;;;;;;;;;;;;;;;;;;5117784;27;19912;-61
2021/07/10 07:49:33;;;;;;;;;;;;;;;;;;5117743;27;19916;-61
2021/07/10 07:51:59;;;;;;;;;;;;;;;;;;5114184;27;19920;-60
2021/07/10 07:54:27;;;;;;;;;;;;;;;;;;5117869;27;19911;-60
2021/07/10 07:56:53;;;;;;;;;;;;;;;;;;5100501;28;20389;-63
2021/07/10 07:59:19;;;;;;;;;;;;;;;;;;5117514;27;19986;-61
2021/07/10 08:01:45;;;;;;;;;;;;;;;;;;5117420;27;19912;-60
2021/07/10 08:04:11;;;;;;;;;;;;;;;;;;5109472;28;20247;-60
2021/07/10 08:06:37;;;;;;;;;;;;;;;;;;5116464;27;20415;-61
2021/07/10 08:09:03;;;;;;;;;;;;;;;;;;5123202;27;19914;-60
2021/07/10 08:11:29;;;;;;;;;;;;;;;;;;5117701;27;19950;-60
2021/07/10 08:13:55;;;;;;;;;;;;;;;;;;5115667;27;19976;-60
2021/07/10 08:16:21;;;;;;;;;;;;;;;;;;5115230;27;19915;-60
2021/07/10 08:18:46;;;;;;;;;;;;;;;;;;5111771;28;19946;-60
2021/07/10 08:21:13;;;;;;;;;;;;;;;;;;5117442;27;19926;-60
2021/07/10 08:23:39;;;;;;;;;;;;;;;;;;5115606;27;19982;-60
2021/07/10 08:26:04;;;;;;;;;;;;;;;;;;5115829;27;19921;-60
2021/07/10 08:28:30;;;;;;;;;;;;;;;;;;5114766;27;19915;-60
2021/07/10 08:30:56;;;;;;;;;;;;;;;;;;5101256;27;20030;-60
2021/07/10 08:33:22;;;;;;;;;;;;;;;;;;5130046;27;19988;-60
2021/07/10 08:35:48;;;;;;;;;;;;;;;;;;5112424;27;19916;-60
2021/07/10 08:38:14;;;;;;;;;;;;;;;;;;5108626;27;20732;-60
2021/07/10 08:40:40;;;;;;;;;;;;;;;;;;5106968;27;20010;-60
2021/07/10 08:43:06;;;;;;;;;;;;;;;;;;5097090;27;20424;-60
2021/07/10 08:45:32;;;;;;;;;;;;;;;;;;5109166;27;19915;-60
2021/07/10 08:47:58;;;;;;;;;;;;;;;;;;5116103;27;19908;-60
2021/07/10 08:50:23;;;;;;;;;;;;;;;;;;5114646;27;20185;-60
2021/07/10 08:52:49;;;;;;;;;;;;;;;;;;5117689;27;19923;-60
2021/07/10 08:55:15;;;;;;;;;;;;;;;;;;5123305;27;20336;-60
2021/07/10 08:57:41;;;;;;;;;;;;;;;;;;5105819;27;19919;-61
2021/07/10 09:00:07;;;;;;;;;;;;;;;;;;5118772;27;19908;-61
2021/07/10 09:02:33;;;;;;;;;;;;;;;;;;5115956;27;19927;-62
2021/07/10 09:04:59;;;;;;;;;;;;;;;;;;5116403;27;19912;-61
2021/07/10 09:07:25;;;;;;;;;;;;;;;;;;5115614;27;19912;-61
2021/07/10 09:09:51;;;;;;;;;;;;;;;;;;5111214;27;19918;-61
2021/07/10 09:12:17;;;;;;;;;;;;;;;;;;5119206;27;19923;-61
2021/07/10 09:14:43;;;;;;;;;;;;;;;;;;5117695;27;19912;-61
2021/07/10 09:17:09;;;;;;;;;;;;;;;;;;5115591;27;19911;-61
2021/07/10 09:19:35;;;;;;;;;;;;;;;;;;5115250;27;19912;-61
2021/07/10 09:22:00;;;;;;;;;;;;;;;;;;5112720;27;19913;-61
2021/07/10 09:24:28;;;;;;;;;;;;;;;;;;5131586;27;19911;-60
2021/07/10 09:26:54;;;;;;;;;;;;;;;;;;5116524;27;19908;-61
2021/07/10 09:29:19;;;;;;;;;;;;;;;;;;5114571;27;19916;-61
2021/07/10 09:31:45;;;;;;;;;;;;;;;;;;5115641;27;20349;-61
2021/07/10 09:34:11;;;;;;;;;;;;;;;;;;5114186;27;19915;-60
2021/07/10 09:36:37;;;;;;;;;;;;;;;;;;5113716;27;19919;-62
2021/07/10 09:39:03;;;;;;;;;;;;;;;;;;5117360;27;19908;-61
2021/07/10 09:41:29;;;;;;;;;;;;;;;;;;5114998;27;19919;-63
2021/07/10 09:43:56;;;;;;;;;;;;;;;;;;5115357;27;20371;-62
2021/07/10 09:46:22;;;;;;;;;;;;;;;;;;5115061;27;19951;-61
2021/07/10 09:48:48;;;;;;;;;;;;;;;;;;5110745;28;19982;-63
2021/07/10 09:51:14;;;;;;;;;;;;;;;;;;5117462;27;19922;-62
2021/07/10 09:53:39;;;;;;;;;;;;;;;;;;5124797;27;20274;-61
2021/07/10 09:56:05;;;;;;;;;;;;;;;;;;5120305;27;19919;-60
2021/07/10 09:58:31;;;;;;;;;;;;;;;;;;5114961;27;20358;-62
2021/07/10 10:00:57;;;;;;;;;;;;;;;;;;5111400;27;19916;-61
2021/07/10 10:03:23;;;;;;;;;;;;;;;;;;5116031;27;20278;-61
2021/07/10 10:05:49;;;;;;;;;;;;;;;;;;5108687;27;19997;-60
2021/07/10 10:08:15;;;;;;;;;;;;;;;;;;5112161;27;19914;-61
2021/07/10 10:10:44;;;;;;;;;;;;;;;;;;5112198;27;19928;-61
2021/07/10 10:13:10;;;;;;;;;;;;;;;;;;5112695;27;19915;-64
2021/07/10 10:15:35;;;;;;;;;;;;;;;;;;5112229;27;20002;-63
2021/07/10 10:18:01;;;;;;;;;;;;;;;;;;5116228;27;19908;-65
2021/07/10 10:20:27;;;;;;;;;;;;;;;;;;5114486;27;19912;-65
2021/07/10 10:22:53;;;;;;;;;;;;;;;;;;5112882;27;20278;-62
2021/07/10 10:25:19;;;;;;;;;;;;;;;;;;5115911;27;19954;-61
2021/07/10 10:27:45;;;;;;;;;;;;;;;;;;5110018;28;19984;-62
2021/07/10 10:30:11;;;;;;;;;;;;;;;;;;5116338;27;19923;-63
2021/07/10 10:32:37;;;;;;;;;;;;;;;;;;5113764;27;20399;-63
2021/07/10 10:35:02;;;;;;;;;;;;;;;;;;5113516;27;19957;-63
2021/07/10 10:37:28;;;;;;;;;;;;;;;;;;5114276;27;20386;-62
2021/07/10 10:39:54;;;;;;;;;;;;;;;;;;5111136;27;19912;-62
2021/07/10 10:42:20;;;;;;;;;;;;;;;;;;5131967;27;19946;-61
2021/07/10 10:44:47;;;;;;;;;;;;;;;;;;5126067;27;19915;-60
2021/07/10 10:47:13;;;;;;;;;;;;;;;;;;5117611;27;19912;-60
2021/07/10 10:49:39;;;;;;;;;;;;;;;;;;5113686;27;19919;-60
2021/07/10 10:52:05;;;;;;;;;;;;;;;;;;5111505;28;20294;-60
2021/07/10 10:54:31;;;;;;;;;;;;;;;;;;5111534;28;19908;-62
2021/07/10 10:56:56;;;;;;;;;;;;;;;;;;5112466;28;20285;-61
2021/07/10 10:59:22;;;;;;;;;;;;;;;;;;5111241;28;20409;-61
2021/07/10 11:01:49;;;;;;;;;;;;;;;;;;5110985;28;19951;-61
2021/07/10 11:04:15;;;;;;;;;;;;;;;;;;5110925;28;19954;-62
2021/07/10 11:06:40;;;;;;;;;;;;;;;;;;5110089;28;20487;-61
2021/07/10 11:09:07;;;;;;;;;;;;;;;;;;5112634;28;19998;-61
2021/07/10 11:11:33;;;;;;;;;;;;;;;;;;5110777;28;20014;-61
2021/07/10 11:13:59;;;;;;;;;;;;;;;;;;5111040;28;20337;-62
2021/07/10 11:16:25;;;;;;;;;;;;;;;;;;5111153;28;19920;-61
2021/07/10 11:18:51;;;;;;;;;;;;;;;;;;5111619;28;19912;-62
2021/07/10 11:21:17;;;;;;;;;;;;;;;;;;5116445;27;20011;-62
2021/07/10 11:23:42;;;;;;;;;;;;;;;;;;5114515;27;19907;-61
2021/07/10 11:26:09;;;;;;;;;;;;;;;;;;5112762;28;19912;-62
2021/07/10 11:28:35;;;;;;;;;;;;;;;;;;5111234;28;19907;-61
2021/07/10 11:31:01;;;;;;;;;;;;;;;;;;5110436;28;20397;-61
2021/07/10 11:33:27;;;;;;;;;;;;;;;;;;5111865;28;19908;-61
2021/07/10 11:35:53;;;;;;;;;;;;;;;;;;5124286;28;19914;-62
2021/07/10 11:38:19;;;;;;;;;;;;;;;;;;5124115;28;20286;-63
2021/07/10 11:40:45;;;;;;;;;;;;;;;;;;5112733;28;19911;-66
2021/07/10 11:43:11;;;;;;;;;;;;;;;;;;5112169;28;20002;-65
2021/07/10 11:45:37;;;;;;;;;;;;;;;;;;5111757;28;19911;-65
2021/07/10 11:48:03;;;;;;;;;;;;;;;;;;5115582;28;19929;-66
2021/07/10 11:50:30;;;;;;;;;;;;;;;;;;5121094;28;19911;-65
2021/07/10 11:52:56;;;;;;;;;;;;;;;;;;5114649;28;20569;-66
2021/07/10 11:55:23;;;;;;;;;;;;;;;;;;5112967;28;19911;-69
2021/07/10 11:57:49;;;;;;;;;;;;;;;;;;5108484;28;19912;-66
2021/07/10 12:00:15;;;;;;;;;;;;;;;;;;5131612;28;20481;-64
2021/07/10 12:02:41;;;;;;;;;;;;;;;;;;5113487;28;19911;-66
2021/07/10 12:05:07;;;;;;;;;;;;;;;;;;5113320;28;19916;-65
2021/07/10 12:07:33;;;;;;;;;;;;;;;;;;5122132;28;19934;-64
2021/07/10 12:09:58;;;;;;;;;;;;;;;;;;5110166;28;19942;-64
2021/07/10 12:12:24;;;;;;;;;;;;;;;;;;5114006;28;20014;-64
2021/07/10 12:14:50;;;;;;;;;;;;;;;;;;5118416;27;19915;-64
2021/07/10 12:17:16;;;;;;;;;;;;;;;;;;5117230;27;20602;-64
2021/07/10 12:19:42;;;;;;;;;;;;;;;;;;5116528;27;20382;-65
2021/07/10 12:22:08;;;;;;;;;;;;;;;;;;5115090;27;19916;-63
2021/07/10 12:24:34;;;;;;;;;;;;;;;;;;5131449;27;19925;-64
2021/07/10 12:26:59;;;;;;;;;;;;;;;;;;5117841;27;19908;-64
2021/07/10 12:29:25;;;;;;;;;;;;;;;;;;5116836;27;19912;-64
2021/07/10 12:31:51;;;;;;;;;;;;;;;;;;5116971;27;19920;-64
2021/07/10 12:34:18;;;;;;;;;;;;;;;;;;5115698;27;19918;-65
2021/07/10 12:36:44;;;;;;;;;;;;;;;;;;5113441;27;19912;-65
2021/07/10 12:39:10;;;;;;;;;;;;;;;;;;5118991;27;19943;-65
2021/07/10 12:41:36;;;;;;;;;;;;;;;;;;5118379;27;20524;-65
2021/07/10 12:44:02;;;;;;;;;;;;;;;;;;5115642;27;20053;-65
2021/07/10 12:46:27;;;;;;;;;;;;;;;;;;5097022;27;19952;-65
2021/07/10 12:48:53;;;;;;;;;;;;;;;;;;5112410;27;19912;-65
2021/07/10 12:51:19;;;;;;;;;;;;;;;;;;5100533;28;19915;-65
2021/07/10 12:53:46;;;;;;;;;;;;;;;;;;5116548;27;19912;-65
2021/07/10 12:56:12;;;;;;;;;;;;;;;;;;5115841;27;19937;-65
2021/07/10 12:58:38;;;;;;;;;;;;;;;;;;5115702;27;19916;-66
2021/07/10 13:01:04;;;;;;;;;;;;;;;;;;5113813;27;19971;-65
2021/07/10 13:03:30;;;;;;;;;;;;;;;;;;5115695;27;19918;-65
2021/07/10 13:05:56;;;;;;;;;;;;;;;;;;5129945;27;19911;-65
2021/07/10 13:08:22;;;;;;;;;;;;;;;;;;5117935;27;19908;-66
2021/07/10 13:10:48;;;;;;;;;;;;;;;;;;5115489;27;19923;-66
2021/07/10 13:13:13;;;;;;;;;;;;;;;;;;5115157;27;19915;-66
2021/07/10 13:15:39;;;;;;;;;;;;;;;;;;5113873;27;19967;-66
2021/07/10 13:18:05;;;;;;;;;;;;;;;;;;5135019;27;20051;-65
2021/07/10 13:20:31;;;;;;;;;;;;;;;;;;5117054;27;20132;-67
2021/07/10 13:22:57;;;;;;;;;;;;;;;;;;5115911;27;20355;-66
2021/07/10 13:25:23;;;;;;;;;;;;;;;;;;5115241;27;19915;-65
2021/07/10 13:27:49;;;;;;;;;;;;;;;;;;5110570;28;19915;-63
2021/07/10 13:30:15;;;;;;;;;;;;;;;;;;5119269;27;20377;-63
2021/07/10 13:32:41;;;;;;;;;;;;;;;;;;5115622;27;19922;-63
2021/07/10 13:35:06;;;;;;;;;;;;;;;;;;5115750;27;20273;-63
2021/07/10 13:37:33;;;;;;;;;;;;;;;;;;5115744;27;19914;-63
2021/07/10 13:39:58;;;;;;;;;;;;;;;;;;5112503;27;19919;-62
2021/07/10 13:42:24;;;;;;;;;;;;;;;;;;5115830;27;20327;-64
2021/07/10 13:44:53;;;;;;;;;;;;;;;;;;5129336;27;19957;-66
2021/07/10 13:47:19;;;;;;;;;;;;;;;;;;5126107;27;19956;-65
2021/07/10 13:49:45;;;;;;;;;;;;;;;;;;5125647;27;19911;-69
2021/07/10 13:52:11;;;;;;;;;;;;;;;;;;5126259;27;20290;-65
2021/07/10 13:54:37;;;;;;;;;;;;;;;;;;5112346;28;19981;-66
2021/07/10 13:57:03;;;;;;;;;;;;;;;;;;5116812;27;20343;-66
2021/07/10 13:59:29;;;;;;;;;;;;;;;;;;5115129;27;19976;-66
2021/07/10 14:01:55;;;;;;;;;;;;;;;;;;5115127;27;19947;-69
2021/07/10 14:04:20;;;;;;;;;;;;;;;;;;5114467;27;19918;-69
2021/07/10 14:06:46;;;;;;;;;;;;;;;;;;5094099;28;20359;-62
2021/07/10 14:09:12;;;;;;;;;;;;;;;;;;5126715;27;19911;-66
2021/07/10 14:11:38;;;;;;;;;;;;;;;;;;5114624;27;20371;-66
2021/07/10 14:14:04;;;;;;;;;;;;;;;;;;5096278;28;20010;-66
2021/07/10 14:16:31;;;;;;;;;;;;;;;;;;5114184;27;19962;-66
2021/07/10 14:18:57;;;;;;;;;;;;;;;;;;5111230;27;19923;-66
2021/07/10 14:21:23;;;;;;;;;;;;;;;;;;5116328;27;19908;-65
2021/07/10 14:23:49;;;;;;;;;;;;;;;;;;5115194;27;19981;-66
2021/07/10 14:26:14;;;;;;;;;;;;;;;;;;5122248;27;20339;-65
2021/07/10 14:28:40;;;;;;;;;;;;;;;;;;5123445;27;19915;-66
2021/07/10 14:31:06;;;;;;;;;;;;;;;;;;5111692;27;20391;-66
2021/07/10 14:33:32;;;;;;;;;;;;;;;;;;5113445;27;20018;-65
2021/07/10 14:35:58;;;;;;;;;;;;;;;;;;5115542;27;20003;-67
2021/07/10 14:38:24;;;;;;;;;;;;;;;;;;5113873;27;19916;-65
2021/07/10 14:40:50;;;;;;;;;;;;;;;;;;5095809;28;20370;-66
2021/07/10 14:43:16;;;;;;;;;;;;;;;;;;5113559;27;19911;-65
2021/07/10 14:45:41;;;;;;;;;;;;;;;;;;5113992;27;19959;-68
2021/07/10 14:48:07;;;;;;;;;;;;;;;;;;5132204;27;19911;-67
2021/07/10 14:50:33;;;;;;;;;;;;;;;;;;5113926;27;20286;-67
2021/07/10 14:53:00;;;;;;;;;;;;;;;;;;5118996;27;19911;-67
2021/07/10 14:55:26;;;;;;;;;;;;;;;;;;5123485;27;20363;-67
2021/07/10 14:57:52;;;;;;;;;;;;;;;;;;5109774;28;19947;-67
2021/07/10 15:00:18;;;;;;;;;;;;;;;;;;5116768;27;19911;-67
2021/07/10 15:02:44;;;;;;;;;;;;;;;;;;5114755;27;19915;-66
2021/07/10 15:05:10;;;;;;;;;;;;;;;;;;5113761;27;20419;-67
2021/07/10 15:07:36;;;;;;;;;;;;;;;;;;5113791;27;20042;-67
2021/07/10 15:10:02;;;;;;;;;;;;;;;;;;5111177;28;20279;-67
2021/07/10 15:12:28;;;;;;;;;;;;;;;;;;5114369;27;19915;-67
2021/07/10 15:14:54;;;;;;;;;;;;;;;;;;5114452;27;19915;-67
2021/07/10 15:17:19;;;;;;;;;;;;;;;;;;5120916;27;19912;-67
2021/07/10 15:19:45;;;;;;;;;;;;;;;;;;5121541;27;19990;-67
2021/07/10 15:22:11;;;;;;;;;;;;;;;;;;5110426;28;20670;-64
2021/07/10 15:24:37;;;;;;;;;;;;;;;;;;5112983;27;19995;-65
2021/07/10 15:27:03;;;;;;;;;;;;;;;;;;5115462;27;19959;-65
2021/07/10 15:29:29;;;;;;;;;;;;;;;;;;5113293;28;19911;-66
2021/07/10 15:31:55;;;;;;;;;;;;;;;;;;5112815;28;19942;-66
2021/07/10 15:34:21;;;;;;;;;;;;;;;;;;5113537;28;19952;-66
2021/07/10 15:36:47;;;;;;;;;;;;;;;;;;5093145;28;19919;-66
2021/07/10 15:39:12;;;;;;;;;;;;;;;;;;5116645;28;19908;-66
2021/07/10 15:41:38;;;;;;;;;;;;;;;;;;5095081;28;20031;-66
2021/07/10 15:44:04;;;;;;;;;;;;;;;;;;5113037;28;19968;-66
2021/07/10 15:46:30;;;;;;;;;;;;;;;;;;5113096;28;19907;-66
2021/07/10 15:48:56;;;;;;;;;;;;;;;;;;5093072;27;20446;-65
2021/07/10 15:51:22;;;;;;;;;;;;;;;;;;5119045;27;19916;-66
2021/07/10 15:53:48;;;;;;;;;;;;;;;;;;5117873;27;19912;-66
2021/07/10 15:56:14;;;;;;;;;;;;;;;;;;5117149;27;19919;-64
2021/07/10 15:58:40;;;;;;;;;;;;;;;;;;5117128;27;19927;-65
2021/07/10 16:01:06;;;;;;;;;;;;;;;;;;5115081;27;19916;-65
2021/07/10 16:03:32;;;;;;;;;;;;;;;;;;5117351;27;20369;-65
2021/07/10 16:05:58;;;;;;;;;;;;;;;;;;5118205;27;19918;-65
2021/07/10 16:08:23;;;;;;;;;;;;;;;;;;5116649;27;19908;-65
2021/07/10 16:10:49;;;;;;;;;;;;;;;;;;5116387;27;19919;-65
2021/07/10 16:13:15;;;;;;;;;;;;;;;;;;5116231;27;20315;-65
2021/07/10 16:15:41;;;;;;;;;;;;;;;;;;5114157;27;20007;-65
2021/07/10 16:18:07;;;;;;;;;;;;;;;;;;5119181;27;20007;-65
2021/07/10 16:20:33;;;;;;;;;;;;;;;;;;5116461;27;19940;-65
2021/07/10 16:22:59;;;;;;;;;;;;;;;;;;5116999;27;19957;-65
2021/07/10 16:25:25;;;;;;;;;;;;;;;;;;5116595;27;19911;-65
2021/07/10 16:27:51;;;;;;;;;;;;;;;;;;5113005;28;19915;-65
2021/07/10 16:30:17;;;;;;;;;;;;;;;;;;5120060;27;19994;-65
2021/07/10 16:32:43;;;;;;;;;;;;;;;;;;5118100;27;19920;-65
2021/07/10 16:35:09;;;;;;;;;;;;;;;;;;5116986;27;20355;-65